createdAt,value
2018-03-15T00:00:43.589Z,84.10
2018-03-15T00:03:16.937Z,84.20
2018-03-15T00:05:45.295Z,84.30
2018-03-15T00:08:12.862Z,84.30
2018-03-15T00:10:40.450Z,84.50
2018-03-15T00:13:08.058Z,84.60
2018-03-15T00:15:35.644Z,84.40
2018-03-15T00:18:03.230Z,84.60
2018-03-15T00:20:31.590Z,84.60
2018-03-15T00:22:59.188Z,84.40
2018-03-15T00:25:27.560Z,84.60
2018-03-15T00:27:55.138Z,84.60
2018-03-15T00:30:23.710Z,84.60
2018-03-15T00:32:51.437Z,84.60
2018-03-15T00:35:19.613Z,84.40
2018-03-15T00:37:47.205Z,84.60
2018-03-15T00:40:14.862Z,84.60
2018-03-15T00:42:42.503Z,84.50
2018-03-15T00:45:10.102Z,84.80
2018-03-15T00:47:38.842Z,84.70
2018-03-15T00:50:07.037Z,84.80
2018-03-15T00:52:34.649Z,84.80
2018-03-15T00:55:02.262Z,85.10
2018-03-15T00:57:30.740Z,84.80
2018-03-15T00:59:58.339Z,84.70
2018-03-15T01:02:25.940Z,84.60
2018-03-15T01:04:53.556Z,84.90
2018-03-15T01:07:21.217Z,84.60
2018-03-15T01:09:48.826Z,84.50
2018-03-15T01:12:16.474Z,84.50
2018-03-15T01:14:44.082Z,84.60
2018-03-15T01:17:12.539Z,84.50
2018-03-15T01:19:40.149Z,84.50
2018-03-15T01:22:08.251Z,84.60
2018-03-15T01:24:36.227Z,84.50
2018-03-15T01:27:03.815Z,84.40
2018-03-15T01:29:31.420Z,84.40
2018-03-15T01:31:59.772Z,84.60
2018-03-15T01:34:27.349Z,84.60
2018-03-15T01:36:57.431Z,84.40
2018-03-15T01:39:25.062Z,84.40
2018-03-15T01:41:52.661Z,84.60
2018-03-15T01:44:20.270Z,84.50
2018-03-15T01:46:48.903Z,84.40
2018-03-15T01:49:16.592Z,84.30
2018-03-15T01:51:44.194Z,84.40
2018-03-15T01:54:13.431Z,84.50
2018-03-15T01:56:41.986Z,84.40
2018-03-15T01:59:13.046Z,84.40
2018-03-15T02:01:41.574Z,84.30
2018-03-15T02:04:09.186Z,84.40
2018-03-15T02:06:37.563Z,84.50
2018-03-15T02:09:05.199Z,84.50
2018-03-15T02:11:32.795Z,84.40
2018-03-15T02:14:01.171Z,84.30
2018-03-15T02:16:28.768Z,84.20
2018-03-15T02:18:56.360Z,84.20
2018-03-15T02:21:23.979Z,84.20
2018-03-15T02:23:52.371Z,84.50
2018-03-15T02:26:20.730Z,84.30
2018-03-15T02:28:48.370Z,84.30
2018-03-15T02:31:16.015Z,84.20
2018-03-15T02:33:45.673Z,84.20
2018-03-15T02:36:13.352Z,84.10
2018-03-15T02:38:41.687Z,84.10
2018-03-15T02:41:09.278Z,84.10
2018-03-15T02:43:36.887Z,84.20
2018-03-15T02:46:04.475Z,84.30
2018-03-15T02:48:32.059Z,84.20
2018-03-15T02:50:59.757Z,84.10
2018-03-15T02:53:28.155Z,84.20
2018-03-15T02:55:56.522Z,84.40
2018-03-15T02:58:25.139Z,84.40
2018-03-15T03:00:52.982Z,84.50
2018-03-15T03:03:21.368Z,84.70
2018-03-15T03:05:48.964Z,84.60
2018-03-15T03:08:17.577Z,84.80
2018-03-15T03:10:45.206Z,84.90
2018-03-15T03:13:12.812Z,84.90
2018-03-15T03:15:40.422Z,84.90
2018-03-15T03:18:08.137Z,85.00
2018-03-15T03:20:35.723Z,84.90
2018-03-15T03:23:04.285Z,85.00
2018-03-15T03:25:32.005Z,85.10
2018-03-15T03:28:00.438Z,85.00
2018-03-15T03:30:28.827Z,85.00
2018-03-15T03:32:56.511Z,85.00
2018-03-15T03:35:24.085Z,84.90
2018-03-15T03:37:51.674Z,85.40
2018-03-15T03:40:20.034Z,84.70
2018-03-15T03:42:49.239Z,84.70
2018-03-15T03:45:16.856Z,84.80
2018-03-15T03:47:44.520Z,85.00
2018-03-15T03:50:12.148Z,84.70
2018-03-15T03:52:39.737Z,84.60
2018-03-15T03:55:08.680Z,84.60
2018-03-15T03:57:36.259Z,84.60
2018-03-15T04:00:03.859Z,84.60
2018-03-15T04:02:31.480Z,84.50
2018-03-15T04:04:59.059Z,84.60
2018-03-15T04:07:26.655Z,84.40
2018-03-15T04:09:54.999Z,84.50
2018-03-15T04:12:22.619Z,84.50
2018-03-15T04:14:51.077Z,84.60
2018-03-15T04:17:18.670Z,84.20
2018-03-15T04:19:46.612Z,84.10
2018-03-15T04:22:14.302Z,84.20
2018-03-15T04:24:42.875Z,84.00
2018-03-15T04:27:11.462Z,83.90
2018-03-15T04:29:39.838Z,83.80
2018-03-15T04:32:07.453Z,83.80
2018-03-15T04:34:35.057Z,83.80
2018-03-15T04:37:02.707Z,83.80
2018-03-15T04:39:30.310Z,83.40
2018-03-15T04:41:57.970Z,83.40
2018-03-15T04:44:25.579Z,83.30
2018-03-15T04:46:53.285Z,83.20
2018-03-15T04:49:20.883Z,83.10
2018-03-15T04:51:49.627Z,83.20
2018-03-15T04:54:18.377Z,83.20
2018-03-15T04:56:46.001Z,83.20
2018-03-15T04:59:13.573Z,83.10
2018-03-15T05:01:41.161Z,83.20
2018-03-15T05:04:09.523Z,83.10
2018-03-15T05:06:37.111Z,83.00
2018-03-15T05:09:05.505Z,83.20
2018-03-15T05:11:33.127Z,83.80
2018-03-15T05:14:00.751Z,83.20
2018-03-15T05:16:28.375Z,83.20
2018-03-15T05:18:56.006Z,83.20
2018-03-15T05:21:23.656Z,83.00
2018-03-15T05:23:51.306Z,83.20
2018-03-15T05:26:18.956Z,83.20
2018-03-15T05:28:47.068Z,83.00
2018-03-15T05:31:16.087Z,83.10
2018-03-15T05:33:43.796Z,83.10
2018-03-15T05:36:11.443Z,82.90
2018-03-15T05:38:39.049Z,83.80
2018-03-15T05:41:06.629Z,83.00
2018-03-15T05:43:35.120Z,82.90
2018-03-15T05:46:02.752Z,82.80
2018-03-15T05:48:30.379Z,82.90
2018-03-15T05:50:57.965Z,82.60
2018-03-15T05:53:25.541Z,82.60
2018-03-15T05:55:53.147Z,82.60
2018-03-15T05:58:21.402Z,82.50
2018-03-15T06:00:49.018Z,82.40
2018-03-15T06:03:16.619Z,82.70
2018-03-15T06:05:44.982Z,82.40
2018-03-15T06:08:13.394Z,82.50
2018-03-15T06:10:42.494Z,82.50
2018-03-15T06:13:10.124Z,82.20
2018-03-15T06:15:37.994Z,82.30
2018-03-15T06:18:05.663Z,82.50
2018-03-15T06:20:34.054Z,82.10
2018-03-15T06:23:01.693Z,82.10
2018-03-15T06:25:29.385Z,81.90
2018-03-15T06:27:57.095Z,82.00
2018-03-15T06:30:24.845Z,81.60
2018-03-15T06:32:53.237Z,81.00
2018-03-15T06:35:21.738Z,81.20
2018-03-15T06:37:49.472Z,81.20
2018-03-15T06:40:18.844Z,81.00
2018-03-15T06:42:46.728Z,80.80
2018-03-15T06:45:14.287Z,80.90
2018-03-15T06:47:41.981Z,80.60
2018-03-15T06:50:09.608Z,80.70
2018-03-15T06:52:37.322Z,80.60
2018-03-15T06:55:05.717Z,80.40
2018-03-15T06:57:33.341Z,80.40
2018-03-15T07:00:00.935Z,79.90
2018-03-15T07:02:29.279Z,79.60
2018-03-15T07:04:57.923Z,79.60
2018-03-15T07:07:25.583Z,79.60
2018-03-15T07:09:53.277Z,79.80
2018-03-15T07:12:21.481Z,79.40
2018-03-15T07:14:49.300Z,79.30
2018-03-15T07:17:18.599Z,79.20
2018-03-15T07:19:46.451Z,79.20
2018-03-15T07:22:14.095Z,79.50
2018-03-15T07:24:41.949Z,79.30
2018-03-15T07:27:10.388Z,78.80
2018-03-15T07:29:38.562Z,78.80
2018-03-15T07:32:06.434Z,78.90
2018-03-15T07:34:34.690Z,78.90
2018-03-15T07:37:02.301Z,79.30
2018-03-15T07:39:30.921Z,78.80
2018-03-15T07:42:00.264Z,78.10
2018-03-15T07:44:28.620Z,77.40
2018-03-15T07:46:57.248Z,77.40
2018-03-15T07:49:26.561Z,77.00
2018-03-15T07:51:55.196Z,77.00
2018-03-15T07:54:25.271Z,76.80
2018-03-15T07:56:52.857Z,76.60
2018-03-15T07:59:20.475Z,76.40
2018-03-15T08:01:49.805Z,76.50
2018-03-15T08:04:20.497Z,75.90
2018-03-15T08:06:49.161Z,76.10
2018-03-15T08:09:16.750Z,75.90
2018-03-15T08:11:45.329Z,75.40
2018-03-15T08:14:13.018Z,74.90
2018-03-15T08:16:40.703Z,75.10
2018-03-15T08:19:08.434Z,76.20
2018-03-15T08:21:36.180Z,75.00
2018-03-15T08:24:04.884Z,74.80
2018-03-15T08:26:32.524Z,74.30
2018-03-15T08:29:02.671Z,75.40
2018-03-15T08:31:30.438Z,73.90
2018-03-15T08:33:58.361Z,74.30
2018-03-15T08:36:26.663Z,74.60
2018-03-15T08:38:54.412Z,73.90
2018-03-15T08:41:24.575Z,74.40
2018-03-15T08:43:53.679Z,74.30
2018-03-15T08:46:22.195Z,74.50
2018-03-15T08:48:49.939Z,74.50
2018-03-15T08:51:18.468Z,73.40
2018-03-15T08:53:47.495Z,73.20
2018-03-15T08:56:15.624Z,73.10
2018-03-15T08:58:43.268Z,73.30
2018-03-15T09:01:11.542Z,73.30
2018-03-15T09:03:39.310Z,72.50
2018-03-15T09:06:07.236Z,72.60
2018-03-15T09:08:35.910Z,72.20
2018-03-15T09:11:03.634Z,72.70
2018-03-15T09:13:31.345Z,72.90
2018-03-15T09:15:59.011Z,71.90
2018-03-15T09:18:26.709Z,71.20
2018-03-15T09:20:55.551Z,72.10
2018-03-15T09:23:24.875Z,71.20
2018-03-15T09:25:52.463Z,71.10
2018-03-15T09:28:20.218Z,70.70
2018-03-15T09:30:48.415Z,71.10
2018-03-15T09:33:16.224Z,71.30
2018-03-15T09:35:43.894Z,70.40
2018-03-15T09:38:11.567Z,70.80
2018-03-15T09:40:39.218Z,70.30
2018-03-15T09:43:08.148Z,69.00
2018-03-15T09:45:35.892Z,69.00
2018-03-15T09:48:04.232Z,68.70
2018-03-15T09:50:32.769Z,68.10
2018-03-15T09:53:00.464Z,69.80
2018-03-15T09:55:28.946Z,68.70
2018-03-15T09:57:56.779Z,68.60
2018-03-15T10:00:25.230Z,67.80
2018-03-15T10:02:52.831Z,67.80
2018-03-15T10:05:20.517Z,69.20
2018-03-15T10:07:48.186Z,68.70
2018-03-15T10:10:15.890Z,67.40
2018-03-15T10:12:43.529Z,66.60
2018-03-15T10:15:11.241Z,67.20
2018-03-15T10:17:39.149Z,66.30
2018-03-15T10:20:07.065Z,65.90
2018-03-15T10:22:35.498Z,65.60
2018-03-15T10:25:13.607Z,65.60
2018-03-15T10:27:30.936Z,65.80
2018-03-15T10:29:58.648Z,64.10
2018-03-15T10:32:26.290Z,63.80
2018-03-15T10:35:00.291Z,64.40
2018-03-15T10:37:27.972Z,64.40
2018-03-15T10:39:55.653Z,63.80
2018-03-15T10:42:24.081Z,62.80
2018-03-15T10:44:52.621Z,62.60
2018-03-15T10:47:21.100Z,64.00
2018-03-15T10:49:48.786Z,63.90
2018-03-15T10:52:16.510Z,63.80
2018-03-15T10:54:44.188Z,64.90
2018-03-15T10:57:11.881Z,63.50
2018-03-15T10:59:40.391Z,63.20
2018-03-15T11:02:08.100Z,63.10
2018-03-15T11:04:41.330Z,63.30
2018-03-15T11:07:15.505Z,64.70
2018-03-15T11:09:43.208Z,64.60
2018-03-15T11:12:11.768Z,64.90
2018-03-15T11:14:40.993Z,64.80
2018-03-15T11:17:08.647Z,64.50
2018-03-15T11:19:36.310Z,64.60
2018-03-15T11:22:04.080Z,64.30
2018-03-15T11:24:31.862Z,64.40
2018-03-15T11:26:59.744Z,64.10
2018-03-15T11:29:28.165Z,63.30
2018-03-15T11:31:56.441Z,62.90
2018-03-15T11:34:24.119Z,62.90
2018-03-15T11:36:51.803Z,62.90
2018-03-15T11:39:19.477Z,62.40
2018-03-15T11:41:47.233Z,62.50
2018-03-15T11:44:14.873Z,63.10
2018-03-15T11:46:42.634Z,63.30
2018-03-15T11:49:10.298Z,62.00
2018-03-15T11:51:38.827Z,61.70
2018-03-15T11:54:06.523Z,62.40
2018-03-15T11:56:34.246Z,62.70
2018-03-15T11:59:01.973Z,62.40
2018-03-15T12:01:29.648Z,61.60
2018-03-15T12:03:57.308Z,62.00
2018-03-15T12:06:25.758Z,62.10
2018-03-15T12:08:53.412Z,62.10
2018-03-15T12:11:21.180Z,61.20
2018-03-15T12:13:48.905Z,61.40
2018-03-15T12:16:17.719Z,61.20
2018-03-15T12:18:53.369Z,60.60
2018-03-15T12:21:22.410Z,61.30
2018-03-15T12:23:50.287Z,60.90
2018-03-15T12:26:18.177Z,60.80
2018-03-15T12:28:46.261Z,60.70
2018-03-15T12:31:14.920Z,60.10
2018-03-15T12:33:43.656Z,61.40
2018-03-15T12:36:11.276Z,60.30
2018-03-15T12:38:38.964Z,60.30
2018-03-15T12:41:06.717Z,60.80
2018-03-15T12:43:35.200Z,59.30
2018-03-15T12:46:03.704Z,59.30
2018-03-15T12:48:31.451Z,59.50
2018-03-15T12:50:59.118Z,60.40
2018-03-15T12:53:26.841Z,59.90
2018-03-15T12:55:54.556Z,59.30
2018-03-15T12:58:22.224Z,59.00
2018-03-15T13:00:49.951Z,59.20
2018-03-15T13:03:17.775Z,59.60
2018-03-15T13:05:45.492Z,58.90
2018-03-15T13:08:13.141Z,59.70
2018-03-15T13:10:40.805Z,58.80
2018-03-15T13:13:08.660Z,58.90
2018-03-15T13:15:37.258Z,58.80
2018-03-15T13:18:04.991Z,58.40
2018-03-15T13:20:33.736Z,58.90
2018-03-15T13:23:01.547Z,59.90
2018-03-15T13:25:29.176Z,59.40
2018-03-15T13:27:56.943Z,59.50
2018-03-15T13:30:25.147Z,59.70
2018-03-15T13:32:52.918Z,58.70
2018-03-15T13:35:20.621Z,59.90
2018-03-15T13:37:49.148Z,60.30
2018-03-15T13:40:16.782Z,60.20
2018-03-15T13:42:44.481Z,59.70
2018-03-15T13:45:12.107Z,59.90
2018-03-15T13:47:41.484Z,60.10
2018-03-15T13:50:09.257Z,60.40
2018-03-15T13:52:37.957Z,59.00
2018-03-15T13:55:05.678Z,59.30
2018-03-15T13:57:33.249Z,59.40
2018-03-15T14:00:00.906Z,61.30
2018-03-15T14:02:28.519Z,59.10
2018-03-15T14:04:56.136Z,60.10
2018-03-15T14:07:24.517Z,59.30
2018-03-15T14:09:52.960Z,59.00
2018-03-15T14:12:20.586Z,59.00
2018-03-15T14:14:48.172Z,59.80
2018-03-15T14:17:15.749Z,60.30
2018-03-15T14:19:43.474Z,59.40
2018-03-15T14:22:11.896Z,60.60
2018-03-15T14:24:39.562Z,59.90
2018-03-15T14:27:08.225Z,60.10
2018-03-15T14:29:36.006Z,60.20
2018-03-15T14:32:03.656Z,59.50
2018-03-15T14:34:31.328Z,59.20
2018-03-15T14:36:58.960Z,59.00
2018-03-15T14:39:27.331Z,59.40
2018-03-15T14:41:55.763Z,59.60
2018-03-15T14:44:23.421Z,59.60
2018-03-15T14:46:51.081Z,59.60
2018-03-15T14:49:18.790Z,59.70
2018-03-15T14:51:46.496Z,60.80
2018-03-15T14:54:15.560Z,61.70
2018-03-15T14:56:43.218Z,61.70
2018-03-15T14:59:10.907Z,62.30
2018-03-15T15:01:38.710Z,61.60
2018-03-15T15:04:06.435Z,61.90
2018-03-15T15:06:35.309Z,62.30
2018-03-15T15:09:03.127Z,61.80
2018-03-15T15:11:30.745Z,62.20
2018-03-15T15:13:58.446Z,62.80
2018-03-15T15:16:26.269Z,63.00
2018-03-15T15:18:54.751Z,62.70
2018-03-15T15:21:23.471Z,62.80
2018-03-15T15:23:51.763Z,62.80
2018-03-15T15:26:19.565Z,62.40
2018-03-15T15:28:48.817Z,62.60
2018-03-15T15:31:16.543Z,63.50
2018-03-15T15:33:44.218Z,62.40
2018-03-15T15:36:11.905Z,62.40
2018-03-15T15:38:39.690Z,62.00
2018-03-15T15:41:08.029Z,61.20
2018-03-15T15:43:35.712Z,62.00
2018-03-15T15:46:03.373Z,61.60
2018-03-15T15:48:31.068Z,61.50
2018-03-15T15:50:58.754Z,61.60
2018-03-15T15:53:26.531Z,61.90
2018-03-15T15:55:54.166Z,62.80
2018-03-15T15:58:22.035Z,62.20
2018-03-15T16:00:49.833Z,63.10
2018-03-15T16:03:17.601Z,63.40
2018-03-15T16:05:45.243Z,63.70
2018-03-15T16:08:12.871Z,63.00
2018-03-15T16:10:40.506Z,64.10
2018-03-15T16:13:08.223Z,64.90
2018-03-15T16:15:36.037Z,64.30
2018-03-15T16:18:03.945Z,64.40
2018-03-15T16:20:31.903Z,63.90
2018-03-15T16:22:59.591Z,64.40
2018-03-15T16:25:28.828Z,64.70
2018-03-15T16:27:56.730Z,64.80
2018-03-15T16:30:24.608Z,64.60
2018-03-15T16:32:53.168Z,65.10
2018-03-15T16:35:20.879Z,65.10
2018-03-15T16:37:49.342Z,64.90
2018-03-15T16:40:16.968Z,64.80
2018-03-15T16:42:45.963Z,64.10
2018-03-15T16:45:13.804Z,64.10
2018-03-15T16:47:43.619Z,64.60
2018-03-15T16:50:11.412Z,64.80
2018-03-15T16:52:40.865Z,63.80
2018-03-15T16:55:10.755Z,64.20
2018-03-15T16:57:39.278Z,63.50
2018-03-15T17:00:07.372Z,63.50
2018-03-15T17:02:35.371Z,64.10
2018-03-15T17:05:04.280Z,63.90
2018-03-15T17:10:18.819Z,64.30
2018-03-15T17:12:46.711Z,64.20
2018-03-15T17:15:14.448Z,64.00
2018-03-15T17:17:42.800Z,63.70
2018-03-15T17:20:10.598Z,63.30
2018-03-15T17:22:39.824Z,63.40
2018-03-15T17:25:12.156Z,63.90
2018-03-15T17:27:40.910Z,64.30
2018-03-15T17:30:12.814Z,64.70
2018-03-15T17:32:41.574Z,64.90
2018-03-15T17:35:09.511Z,64.80
2018-03-15T17:37:37.257Z,64.60
2018-03-15T17:40:05.126Z,64.90
2018-03-15T17:42:33.370Z,65.40
2018-03-15T17:45:01.538Z,65.80
2018-03-15T17:47:30.585Z,65.50
2018-03-15T17:50:01.335Z,66.20
2018-03-15T17:52:31.477Z,66.10
2018-03-15T17:54:59.958Z,66.30
2018-03-15T17:57:27.893Z,66.30
2018-03-15T17:59:59.081Z,66.40
2018-03-15T18:02:26.772Z,67.00
2018-03-15T18:04:54.632Z,66.40
2018-03-15T18:07:22.498Z,67.30
2018-03-15T18:09:52.412Z,67.30
2018-03-15T18:12:24.935Z,67.30
2018-03-15T18:14:54.230Z,67.00
2018-03-15T18:17:22.905Z,67.10
2018-03-15T18:19:52.169Z,67.00
2018-03-15T18:22:20.727Z,67.20
2018-03-15T18:24:48.953Z,67.30
2018-03-15T18:27:17.700Z,67.50
2018-03-15T18:29:45.861Z,67.00
2018-03-15T18:32:13.652Z,67.00
2018-03-15T18:34:41.826Z,66.90
2018-03-15T18:37:09.609Z,66.40
2018-03-15T18:39:37.920Z,67.10
2018-03-15T18:42:05.778Z,66.90
2018-03-15T18:44:34.626Z,67.60
2018-03-15T18:47:03.239Z,67.70
2018-03-15T18:49:31.084Z,66.90
2018-03-15T18:51:59.685Z,67.40
2018-03-15T18:54:28.804Z,68.00
2018-03-15T18:56:58.322Z,69.70
2018-03-15T18:59:26.259Z,70.20
2018-03-15T19:01:54.050Z,71.20
2018-03-15T19:04:21.808Z,72.80
2018-03-15T19:06:51.050Z,74.40
2018-03-15T19:09:19.841Z,74.30
2018-03-15T19:11:47.614Z,75.90
2018-03-15T19:14:17.371Z,77.90
2018-03-15T19:16:46.474Z,78.00
2018-03-15T19:19:14.172Z,78.70
2018-03-15T19:21:41.938Z,78.50
2018-03-15T19:24:10.858Z,81.20
2018-03-15T19:26:39.456Z,80.90
2018-03-15T19:29:08.401Z,81.00
2018-03-15T19:31:37.840Z,81.20
2018-03-15T19:34:05.735Z,81.10
2018-03-15T19:36:33.423Z,82.20
2018-03-15T19:39:02.939Z,82.50
2018-03-15T19:41:30.575Z,83.00
2018-03-15T19:43:59.573Z,83.30
2018-03-15T19:46:27.471Z,83.70
2018-03-15T19:48:55.309Z,84.30
2018-03-15T19:51:23.371Z,84.40
2018-03-15T19:53:53.323Z,85.00
2018-03-15T19:56:21.209Z,84.90
2018-03-15T19:58:48.958Z,85.70
2018-03-15T20:01:16.699Z,86.10
2018-03-15T20:03:44.376Z,85.80
2018-03-15T20:06:12.046Z,86.60
2018-03-15T20:08:39.984Z,86.70
2018-03-15T20:11:07.876Z,86.40
2018-03-15T20:13:36.316Z,87.40
2018-03-15T20:16:04.032Z,87.40
2018-03-15T20:18:32.502Z,88.10
2018-03-15T20:21:02.917Z,88.60
2018-03-15T20:23:38.665Z,88.60
2018-03-15T20:26:06.792Z,89.50
2018-03-15T20:28:40.342Z,90.00
2018-03-15T20:31:07.996Z,90.40
2018-03-15T20:33:41.991Z,90.50
2018-03-15T20:36:10.447Z,90.70
2018-03-15T20:38:38.988Z,90.90
2018-03-15T20:41:12.393Z,91.10
2018-03-15T20:43:40.009Z,90.80
2018-03-15T20:46:14.078Z,91.20
2018-03-15T20:48:47.283Z,91.10
2018-03-15T20:51:14.902Z,91.50
2018-03-15T20:53:42.574Z,91.70
2018-03-15T20:56:10.206Z,91.70
2018-03-15T20:58:38.544Z,92.00
2018-03-15T21:01:06.171Z,92.00
2018-03-15T21:03:34.214Z,92.20
2018-03-15T21:06:03.073Z,92.40
2018-03-15T21:08:30.655Z,92.40
2018-03-15T21:10:58.304Z,92.60
2018-03-15T21:13:25.893Z,92.70
2018-03-15T21:15:54.389Z,92.90
2018-03-15T21:18:22.146Z,92.90
2018-03-15T21:20:49.742Z,92.80
2018-03-15T21:23:17.362Z,92.90
2018-03-15T21:25:44.968Z,93.00
2018-03-15T21:28:13.339Z,93.40
2018-03-15T21:30:40.948Z,93.00
2018-03-15T21:33:11.166Z,93.10
2018-03-15T21:35:38.766Z,92.80
2018-03-15T21:38:06.377Z,93.00
2018-03-15T21:40:34.740Z,93.10
2018-03-15T21:43:02.416Z,93.10
2018-03-15T21:45:30.226Z,93.30
2018-03-15T21:47:57.877Z,92.80
2018-03-15T21:50:25.651Z,93.00
2018-03-15T21:52:53.376Z,92.80
2018-03-15T21:55:21.045Z,93.00
2018-03-15T21:57:48.695Z,93.00
2018-03-15T22:00:16.311Z,93.10
2018-03-15T22:02:44.532Z,93.20
2018-03-15T22:05:12.212Z,93.40
2018-03-15T22:07:39.828Z,93.30
2018-03-15T22:10:07.448Z,93.50
2018-03-15T22:12:35.088Z,93.50
2018-03-15T22:15:02.702Z,93.70
2018-03-15T22:17:30.309Z,93.70
2018-03-15T22:19:57.924Z,93.80
2018-03-15T22:22:25.506Z,93.70
2018-03-15T22:24:53.909Z,93.80
2018-03-15T22:27:21.575Z,93.80
2018-03-15T22:29:49.217Z,94.00
2018-03-15T22:32:16.807Z,93.90
2018-03-15T22:34:44.445Z,93.90
2018-03-15T22:37:12.071Z,93.90
2018-03-15T22:39:39.755Z,94.00
2018-03-15T22:42:07.414Z,94.00
2018-03-15T22:44:35.193Z,94.10
2018-03-15T22:47:02.783Z,94.10
2018-03-15T22:49:31.165Z,94.10
2018-03-15T22:51:58.828Z,94.10
2018-03-15T22:54:27.208Z,93.70
2018-03-15T22:56:54.806Z,93.70
2018-03-15T22:59:22.446Z,93.80
2018-03-15T23:01:50.830Z,93.80
2018-03-15T23:04:19.194Z,93.70
2018-03-15T23:06:46.784Z,93.70
2018-03-15T23:09:14.418Z,93.60
2018-03-15T23:11:42.061Z,93.80
2018-03-15T23:14:09.677Z,93.80
2018-03-15T23:16:37.401Z,93.70
2018-03-15T23:19:05.036Z,93.70
2018-03-15T23:21:32.611Z,93.90
2018-03-15T23:24:00.195Z,93.60
2018-03-15T23:26:27.813Z,93.60
2018-03-15T23:28:56.172Z,93.60
2018-03-15T23:31:23.895Z,93.60
2018-03-15T23:33:51.501Z,93.60
2018-03-15T23:36:19.157Z,93.70
2018-03-15T23:38:46.808Z,93.60
2018-03-15T23:41:14.472Z,93.90
2018-03-15T23:43:42.142Z,93.60
2018-03-15T23:46:09.753Z,93.70
2018-03-15T23:48:37.368Z,93.80
2018-03-15T23:51:05.082Z,94.00
2018-03-15T23:53:33.570Z,93.90
2018-03-15T23:56:01.238Z,93.80
2018-03-15T23:58:29.662Z,93.80
